»·PEaware :: N982CA KLAS-KSNA

N982CA :: KLAS-KSNA

FLIGHT INFORMATION

Flight Status: Arrived
Operator: Privately registered:
United States
More flights under this callsign
Pilot: David C. (25479)
Aircraft: SOCATA TBM-900
(TBM9)
More flights by this aircraft type
Origin: KLAS McCarran Intl
United States
Destination: KSNA John Wayne-Orange Co
United States
More flights between these airports :: More routes between these airports
Route: LAS V538 GFS HEC KAYOH7
File this flight plan on PilotEdge
Remarks:
Altitude:
(Current/Filed)
18,000ft
Speed:
(Current/Filed)
190kts
Departed: 06-Jan-21 09:40 PM
Arrived: 06-Jan-21 10:38 PM
Distance/Time
Traveled:
197nm/0:57
Distance/Time
To Go:
Arrived

Flight Plot

Page will automatically refresh every two minutes.

Flight plan parsing failed; only flown route is shown


Map Options




Map Legend


Flown Route
Filed Route
Departure Airport
Arrival Airport
Navaid (VOR, NDB)
Fix

Horizontal Profiles

Position Reports

Time Latitude Longitude Heading Altitude Ground
Speed
06-Jan-21 21:18 36.099567 -115.159569 117 2095ft 0kts
06-Jan-21 21:19 36.099567 -115.159569 117 2095ft 0kts
06-Jan-21 21:20 36.099567 -115.159569 117 2095ft 0kts
06-Jan-21 21:21 36.099567 -115.159569 117 2095ft 0kts
06-Jan-21 21:22 36.099567 -115.159569 117 2095ft 0kts
06-Jan-21 21:23 36.099567 -115.159569 117 2095ft 0kts
06-Jan-21 21:24 36.099567 -115.159569 117 2095ft 0kts
06-Jan-21 21:25 36.099567 -115.159569 117 2095ft 0kts
06-Jan-21 21:26 36.099567 -115.159569 117 2095ft 0kts
06-Jan-21 21:27 36.099567 -115.159569 117 2095ft 0kts
06-Jan-21 21:28 36.099567 -115.159569 117 2095ft 0kts
06-Jan-21 21:29 36.099567 -115.159569 117 2095ft 0kts
06-Jan-21 21:30 36.099567 -115.159569 117 2095ft 0kts
06-Jan-21 21:31 36.098570 -115.159615 68 2099ft 8kts
06-Jan-21 21:32 36.099924 -115.157520 99 2092ft 0kts
06-Jan-21 21:33 36.099924 -115.157520 99 2092ft 0kts
06-Jan-21 21:34 36.099924 -115.157520 99 2092ft 0kts
06-Jan-21 21:35 36.099924 -115.157520 99 2092ft 0kts
06-Jan-21 21:36 36.099924 -115.157520 99 2092ft 0kts
06-Jan-21 21:37 36.099924 -115.157520 99 2092ft 0kts
06-Jan-21 21:38 36.099924 -115.157520 99 2092ft 0kts
06-Jan-21 21:39 36.087057 -115.163168 198 2352ft 99kts
06-Jan-21 21:40 36.058279 -115.168316 188 3333ft 135kts
06-Jan-21 21:41 36.012276 -115.174657 187 4347ft 182kts
06-Jan-21 21:42 35.962886 -115.182145 188 5169ft 188kts
06-Jan-21 21:43 35.907402 -115.186192 183 5580ft 194kts
06-Jan-21 21:44 35.857519 -115.186639 183 6560ft 179kts
06-Jan-21 21:45 35.807766 -115.188690 182 7547ft 180kts
06-Jan-21 21:46 35.755777 -115.194087 183 8527ft 199kts
06-Jan-21 21:47 35.698345 -115.201496 183 9529ft 215kts
06-Jan-21 21:48 35.637310 -115.205709 177 10541ft 224kts
06-Jan-21 21:49 35.578222 -115.230406 212 11566ft 241kts
06-Jan-21 21:50 35.528637 -115.290695 224 12593ft 255kts
06-Jan-21 21:51 35.485201 -115.359277 231 13605ft 251kts
06-Jan-21 21:52 35.440961 -115.426467 231 14583ft 260kts
06-Jan-21 21:53 35.393528 -115.496210 231 15550ft 270kts
06-Jan-21 21:54 35.345145 -115.567369 231 16581ft 274kts
06-Jan-21 21:55 35.292470 -115.635464 226 17600ft 277kts
06-Jan-21 21:56 35.243670 -115.711179 236 17989ft 294kts
06-Jan-21 21:57 35.195123 -115.793379 235 18013ft 297kts
06-Jan-21 21:58 35.146857 -115.874999 235 17992ft 296kts
06-Jan-21 21:59 35.098181 -115.957101 235 18004ft 292kts
06-Jan-21 22:00 35.052408 -116.034283 235 17990ft 277kts
06-Jan-21 22:01 35.007496 -116.109836 235 17992ft 273kts
06-Jan-21 22:02 34.963222 -116.184263 235 17997ft 269kts
06-Jan-21 22:03 34.919149 -116.258269 235 17990ft 274kts
06-Jan-21 22:04 34.873319 -116.335148 234 17963ft 285kts
06-Jan-21 22:05 34.825625 -116.413164 227 17974ft 288kts
06-Jan-21 22:06 34.767544 -116.480666 223 17969ft 289kts
06-Jan-21 22:07 34.709778 -116.548490 227 17967ft 289kts
06-Jan-21 22:08 34.654671 -116.619251 227 17964ft 289kts
06-Jan-21 22:09 34.599615 -116.690230 227 17973ft 289kts
06-Jan-21 22:10 34.544656 -116.761084 227 17974ft 289kts
06-Jan-21 22:11 34.489564 -116.832318 227 17970ft 289kts
06-Jan-21 22:12 34.433697 -116.904114 227 17405ft 302kts
06-Jan-21 22:13 34.376238 -116.978462 227 16316ft 306kts
06-Jan-21 22:14 34.318309 -117.053142 227 15236ft 304kts
06-Jan-21 22:15 34.260825 -117.127226 227 14163ft 300kts
06-Jan-21 22:16 34.203409 -117.198882 222 13095ft 298kts
06-Jan-21 22:17 34.141568 -117.262020 220 12190ft 282kts
06-Jan-21 22:19 34.083048 -117.320372 220 12089ft 271kts
06-Jan-21 22:20 34.024887 -117.378574 221 12087ft 279kts
06-Jan-21 22:21 33.970416 -117.444923 227 12086ft 279kts
06-Jan-21 22:22 33.920608 -117.508356 227 11650ft 255kts
06-Jan-21 22:23 33.865514 -117.560894 204 10563ft 256kts
06-Jan-21 22:24 33.797962 -117.585628 210 9457ft 254kts
06-Jan-21 22:25 33.804341 -117.656086 307 8281ft 235kts
06-Jan-21 22:26 33.840630 -117.709956 309 7086ft 176kts
06-Jan-21 22:27 33.856309 -117.753860 218 5971ft 124kts
06-Jan-21 22:28 33.825265 -117.776559 202 5093ft 134kts
06-Jan-21 22:29 33.812578 -117.802672 330 4693ft 138kts
06-Jan-21 22:30 33.851371 -117.800782 15 3509ft 143kts
06-Jan-21 22:31 33.871815 -117.775235 153 2865ft 126kts
06-Jan-21 22:32 33.840683 -117.791509 196 2844ft 124kts
06-Jan-21 22:33 33.806753 -117.797162 180 2841ft 124kts
06-Jan-21 22:34 33.772724 -117.807640 205 2258ft 140kts
06-Jan-21 22:35 33.739080 -117.828684 211 1366ft 133kts
06-Jan-21 22:36 33.707330 -117.848710 208 656ft 131kts
06-Jan-21 22:36 33.686213 -117.862284 206 187ft 86kts
06-Jan-21 22:37 33.675976 -117.869827 298 48ft 0kts
06-Jan-21 22:39 33.676068 -117.870814 252 46ft 15kts
06-Jan-21 22:39 33.674289 -117.871946 292 46ft 0kts

Navigation Log

Ident Type
Flight plan parsing failed, navigation log unavailable